sensor_id;sensor_type;location;lat;lon;timestamp;pressure;altitude;pressure_sealevel;temperature;humidity
15670;BME280;18524;45.190;5.732;2023-02-28T00:00:15;99333.09;;;5.49;56.57
15670;BME280;18524;45.190;5.732;2023-02-28T00:05:07;99329.28;;;5.54;56.16
15670;BME280;18524;45.190;5.732;2023-02-28T00:09:59;99320.34;;;5.74;56.24
15670;BME280;18524;45.190;5.732;2023-02-28T00:14:50;99330.66;;;5.61;56.72
15670;BME280;18524;45.190;5.732;2023-02-28T00:19:41;99328.00;;;5.77;55.90
15670;BME280;18524;45.190;5.732;2023-02-28T00:24:31;99326.31;;;5.76;56.15
15670;BME280;18524;45.190;5.732;2023-02-28T00:29:22;99329.28;;;5.70;56.77
15670;BME280;18524;45.190;5.732;2023-02-28T00:34:12;99316.47;;;5.81;56.25
15670;BME280;18524;45.190;5.732;2023-02-28T00:39:02;99329.00;;;5.75;56.59
15670;BME280;18524;45.190;5.732;2023-02-28T00:43:53;99329.53;;;5.65;56.96
15670;BME280;18524;45.190;5.732;2023-02-28T00:48:43;99317.97;;;5.55;57.50
15670;BME280;18524;45.190;5.732;2023-02-28T00:53:34;99329.06;;;5.43;58.02
15670;BME280;18524;45.190;5.732;2023-02-28T00:58:24;99333.53;;;5.41;58.20
15670;BME280;18524;45.190;5.732;2023-02-28T01:03:19;99321.41;;;5.56;57.93
15670;BME280;18524;45.190;5.732;2023-02-28T01:08:09;99324.34;;;5.65;58.45
15670;BME280;18524;45.190;5.732;2023-02-28T01:13:01;99333.34;;;5.60;58.31
15670;BME280;18524;45.190;5.732;2023-02-28T01:17:51;99333.56;;;5.55;58.28
15670;BME280;18524;45.190;5.732;2023-02-28T01:22:41;99341.25;;;5.43;59.39
15670;BME280;18524;45.190;5.732;2023-02-28T01:27:33;99343.88;;;5.27;59.46
15670;BME280;18524;45.190;5.732;2023-02-28T01:32:23;99335.13;;;5.12;60.29
15670;BME280;18524;45.190;5.732;2023-02-28T01:37:14;99329.94;;;5.12;61.05
15670;BME280;18524;45.190;5.732;2023-02-28T01:42:04;99330.03;;;5.26;60.92
15670;BME280;18524;45.190;5.732;2023-02-28T01:46:54;99333.13;;;5.33;59.99
15670;BME280;18524;45.190;5.732;2023-02-28T01:51:48;99337.22;;;5.37;60.63
15670;BME280;18524;45.190;5.732;2023-02-28T01:56:52;99338.00;;;5.23;60.35
15670;BME280;18524;45.190;5.732;2023-02-28T02:01:43;99341.25;;;5.11;61.38
15670;BME280;18524;45.190;5.732;2023-02-28T02:06:38;99331.69;;;5.12;61.30
15670;BME280;18524;45.190;5.732;2023-02-28T02:11:30;99331.88;;;5.24;61.39
15670;BME280;18524;45.190;5.732;2023-02-28T02:41:23;99321.72;;;5.04;62.70
15670;BME280;18524;45.190;5.732;2023-02-28T02:51:13;99329.53;;;5.04;62.53
15670;BME280;18524;45.190;5.732;2023-02-28T02:56:05;99321.72;;;5.04;62.83
15670;BME280;18524;45.190;5.732;2023-02-28T03:01:00;99313.00;;;5.05;63.24
15670;BME280;18524;45.190;5.732;2023-02-28T03:05:52;99310.59;;;5.02;63.74
15670;BME280;18524;45.190;5.732;2023-02-28T03:10:44;99318.78;;;5.10;63.00
15670;BME280;18524;45.190;5.732;2023-02-28T03:20:57;99333.06;;;4.87;63.36
15670;BME280;18524;45.190;5.732;2023-02-28T03:25:59;99328.16;;;4.65;64.61
15670;BME280;18524;45.190;5.732;2023-02-28T03:30:51;99317.03;;;4.79;64.85
15670;BME280;18524;45.190;5.732;2023-02-28T03:35:58;99324.31;;;4.72;64.50
15670;BME280;18524;45.190;5.732;2023-02-28T03:41:00;99329.09;;;4.80;64.60
15670;BME280;18524;45.190;5.732;2023-02-28T03:45:54;99323.66;;;4.69;64.53
15670;BME280;18524;45.190;5.732;2023-02-28T03:50:49;99323.91;;;4.64;65.13
15670;BME280;18524;45.190;5.732;2023-02-28T03:55:48;99335.53;;;4.57;65.67
15670;BME280;18524;45.190;5.732;2023-02-28T04:00:43;99333.94;;;4.70;65.44
15670;BME280;18524;45.190;5.732;2023-02-28T04:05:55;99332.94;;;4.73;65.07
15670;BME280;18524;45.190;5.732;2023-02-28T04:11:00;99334.19;;;4.66;65.35
15670;BME280;18524;45.190;5.732;2023-02-28T04:15:52;99338.88;;;4.59;65.93
15670;BME280;18524;45.190;5.732;2023-02-28T04:20:42;99339.06;;;4.39;66.54
15670;BME280;18524;45.190;5.732;2023-02-28T04:25:33;99344.28;;;4.39;66.49
15670;BME280;18524;45.190;5.732;2023-02-28T04:30:23;99351.13;;;4.57;66.24
15670;BME280;18524;45.190;5.732;2023-02-28T04:35:13;99351.78;;;4.61;66.16
15670;BME280;18524;45.190;5.732;2023-02-28T04:40:04;99353.28;;;4.49;66.97
15670;BME280;18524;45.190;5.732;2023-02-28T04:44:55;99363.88;;;4.45;67.06
15670;BME280;18524;45.190;5.732;2023-02-28T04:49:45;99364.63;;;4.64;66.85
15670;BME280;18524;45.190;5.732;2023-02-28T04:54:36;99368.06;;;4.64;66.37
15670;BME280;18524;45.190;5.732;2023-02-28T04:59:28;99370.91;;;4.76;66.88
15670;BME280;18524;45.190;5.732;2023-02-28T05:04:18;99372.72;;;4.91;66.09
15670;BME280;18524;45.190;5.732;2023-02-28T05:09:09;99378.16;;;5.02;64.85
15670;BME280;18524;45.190;5.732;2023-02-28T05:14:03;99377.22;;;5.19;65.03
15670;BME280;18524;45.190;5.732;2023-02-28T05:18:54;99376.09;;;5.24;64.66
15670;BME280;18524;45.190;5.732;2023-02-28T05:23:44;99369.97;;;5.25;64.56
15670;BME280;18524;45.190;5.732;2023-02-28T05:28:34;99387.72;;;5.33;65.33
15670;BME280;18524;45.190;5.732;2023-02-28T05:33:25;99371.63;;;5.26;65.05
15670;BME280;18524;45.190;5.732;2023-02-28T05:38:15;99372.03;;;5.34;64.77
15670;BME280;18524;45.190;5.732;2023-02-28T05:43:10;99371.59;;;5.42;63.95
15670;BME280;18524;45.190;5.732;2023-02-28T05:48:00;99368.25;;;5.40;64.18
15670;BME280;18524;45.190;5.732;2023-02-28T05:52:51;99363.31;;;5.36;64.19
15670;BME280;18524;45.190;5.732;2023-02-28T05:57:42;99368.50;;;5.36;63.97
15670;BME280;18524;45.190;5.732;2023-02-28T06:02:32;99378.16;;;5.33;64.43
15670;BME280;18524;45.190;5.732;2023-02-28T06:07:23;99376.50;;;5.32;64.44
15670;BME280;18524;45.190;5.732;2023-02-28T06:12:13;99384.22;;;5.34;64.85
15670;BME280;18524;45.190;5.732;2023-02-28T06:17:04;99382.09;;;5.41;65.01
15670;BME280;18524;45.190;5.732;2023-02-28T06:21:55;99399.47;;;5.24;65.18
15670;BME280;18524;45.190;5.732;2023-02-28T06:26:47;99403.59;;;5.28;64.93
15670;BME280;18524;45.190;5.732;2023-02-28T06:31:37;99404.06;;;5.19;65.79
15670;BME280;18524;45.190;5.732;2023-02-28T06:36:28;99411.88;;;5.19;65.39
15670;BME280;18524;45.190;5.732;2023-02-28T06:41:18;99415.09;;;5.24;64.92
15670;BME280;18524;45.190;5.732;2023-02-28T06:46:12;99413.38;;;5.39;64.71
15670;BME280;18524;45.190;5.732;2023-02-28T06:51:17;99415.91;;;5.41;63.84
15670;BME280;18524;45.190;5.732;2023-02-28T06:56:11;99420.19;;;5.42;63.99
15670;BME280;18524;45.190;5.732;2023-02-28T07:01:02;99438.63;;;5.53;63.46
15670;BME280;18524;45.190;5.732;2023-02-28T07:05:52;99446.44;;;5.53;63.36
15670;BME280;18524;45.190;5.732;2023-02-28T07:10:42;99444.59;;;5.55;63.17
15670;BME280;18524;45.190;5.732;2023-02-28T07:15:33;99453.66;;;5.63;62.54
15670;BME280;18524;45.190;5.732;2023-02-28T07:20:24;99453.81;;;5.76;62.29
15670;BME280;18524;45.190;5.732;2023-02-28T07:25:14;99465.31;;;5.72;62.20
15670;BME280;18524;45.190;5.732;2023-02-28T07:30:05;99456.41;;;5.76;61.83
15670;BME280;18524;45.190;5.732;2023-02-28T07:34:56;99461.09;;;5.85;62.18
15670;BME280;18524;45.190;5.732;2023-02-28T07:39:46;99459.09;;;5.90;62.16
15670;BME280;18524;45.190;5.732;2023-02-28T07:44:37;99463.06;;;5.98;61.61
15670;BME280;18524;45.190;5.732;2023-02-28T07:49:30;99461.34;;;6.12;61.39
15670;BME280;18524;45.190;5.732;2023-02-28T07:54:22;99451.22;;;6.38;59.72
15670;BME280;18524;45.190;5.732;2023-02-28T07:59:12;99468.06;;;6.46;58.77
15670;BME280;18524;45.190;5.732;2023-02-28T08:04:02;99468.06;;;6.46;58.98
15670;BME280;18524;45.190;5.732;2023-02-28T08:08:53;99461.00;;;6.63;57.13
15670;BME280;18524;45.190;5.732;2023-02-28T08:13:44;99474.47;;;6.41;57.74
15670;BME280;18524;45.190;5.732;2023-02-28T08:18:35;99470.03;;;6.57;57.95
15670;BME280;18524;45.190;5.732;2023-02-28T08:23:26;99472.44;;;6.60;57.91
15670;BME280;18524;45.190;5.732;2023-02-28T08:28:16;99478.03;;;6.68;57.15
15670;BME280;18524;45.190;5.732;2023-02-28T08:33:07;99481.25;;;6.87;56.03
15670;BME280;18524;45.190;5.732;2023-02-28T08:37:57;99477.88;;;6.85;57.27
15670;BME280;18524;45.190;5.732;2023-02-28T08:42:48;99479.22;;;7.07;56.03
15670;BME280;18524;45.190;5.732;2023-02-28T08:47:40;99484.91;;;7.13;55.54
15670;BME280;18524;45.190;5.732;2023-02-28T08:52:30;99476.22;;;7.27;55.23
15670;BME280;18524;45.190;5.732;2023-02-28T08:57:21;99480.84;;;7.36;55.11
15670;BME280;18524;45.190;5.732;2023-02-28T09:02:13;99484.00;;;7.41;54.65
15670;BME280;18524;45.190;5.732;2023-02-28T09:07:04;99484.59;;;7.32;55.47
15670;BME280;18524;45.190;5.732;2023-02-28T09:11:57;99489.31;;;7.40;55.61
15670;BME280;18524;45.190;5.732;2023-02-28T09:16:48;99500.81;;;7.51;54.76
15670;BME280;18524;45.190;5.732;2023-02-28T09:21:38;99491.50;;;7.47;54.93
15670;BME280;18524;45.190;5.732;2023-02-28T09:26:29;99491.34;;;7.63;55.13
15670;BME280;18524;45.190;5.732;2023-02-28T09:31:22;99499.88;;;7.94;54.20
15670;BME280;18524;45.190;5.732;2023-02-28T09:36:13;99497.34;;;8.19;52.75
15670;BME280;18524;45.190;5.732;2023-02-28T09:41:12;99494.28;;;8.39;52.22
15670;BME280;18524;45.190;5.732;2023-02-28T09:56:39;99497.94;;;8.37;51.33
15670;BME280;18524;45.190;5.732;2023-02-28T10:01:39;99505.91;;;8.48;50.92
15670;BME280;18524;45.190;5.732;2023-02-28T10:06:41;99505.13;;;8.73;50.48
15670;BME280;18524;45.190;5.732;2023-02-28T10:11:36;99506.78;;;8.61;50.53
15670;BME280;18524;45.190;5.732;2023-02-28T10:16:34;99498.66;;;8.78;50.67
15670;BME280;18524;45.190;5.732;2023-02-28T10:21:47;99514.84;;;8.84;50.60
15670;BME280;18524;45.190;5.732;2023-02-28T10:26:43;99506.16;;;8.70;50.20
15670;BME280;18524;45.190;5.732;2023-02-28T10:31:35;99505.22;;;8.59;50.73
15670;BME280;18524;45.190;5.732;2023-02-28T10:36:25;99501.56;;;8.74;50.31
15670;BME280;18524;45.190;5.732;2023-02-28T10:46:18;99508.78;;;8.83;49.97
15670;BME280;18524;45.190;5.732;2023-02-28T10:51:18;99518.97;;;8.48;50.25
15670;BME280;18524;45.190;5.732;2023-02-28T11:00:59;99519.03;;;8.61;50.30
15670;BME280;18524;45.190;5.732;2023-02-28T11:05:50;99516.63;;;8.58;50.29
15670;BME280;18524;45.190;5.732;2023-02-28T11:10:53;99500.63;;;8.88;50.22
15670;BME280;18524;45.190;5.732;2023-02-28T11:15:51;99496.56;;;8.96;50.01
15670;BME280;18524;45.190;5.732;2023-02-28T11:20:48;99497.28;;;9.24;48.73
15670;BME280;18524;45.190;5.732;2023-02-28T11:25:50;99483.97;;;9.39;48.92
15670;BME280;18524;45.190;5.732;2023-02-28T11:30:41;99477.91;;;9.39;47.40
15670;BME280;18524;45.190;5.732;2023-02-28T11:35:38;99473.47;;;9.52;48.18
15670;BME280;18524;45.190;5.732;2023-02-28T11:40:46;99461.38;;;9.62;47.36
15670;BME280;18524;45.190;5.732;2023-02-28T11:45:45;99464.88;;;9.87;46.69
15670;BME280;18524;45.190;5.732;2023-02-28T11:56:08;99440.56;;;9.85;46.64
15670;BME280;18524;45.190;5.732;2023-02-28T12:06:32;99446.91;;;9.93;46.97
15670;BME280;18524;45.190;5.732;2023-02-28T12:22:37;99432.88;;;9.70;46.97
15670;BME280;18524;45.190;5.732;2023-02-28T12:27:11;99431.63;;;9.39;47.81
15670;BME280;18524;45.190;5.732;2023-02-28T12:32:13;99438.47;;;9.53;46.75
15670;BME280;18524;45.190;5.732;2023-02-28T12:37:08;99436.81;;;9.52;46.78
15670;BME280;18524;45.190;5.732;2023-02-28T12:42:07;99433.28;;;9.40;47.02
15670;BME280;18524;45.190;5.732;2023-02-28T12:47:05;99433.75;;;9.58;46.36
15670;BME280;18524;45.190;5.732;2023-02-28T12:52:00;99418.59;;;9.51;46.80
15670;BME280;18524;45.190;5.732;2023-02-28T13:07:19;99391.53;;;9.63;46.29
15670;BME280;18524;45.190;5.732;2023-02-28T13:12:15;99377.09;;;9.57;45.69
15670;BME280;18524;45.190;5.732;2023-02-28T13:21:57;99374.59;;;9.80;46.40
15670;BME280;18524;45.190;5.732;2023-02-28T13:47:42;99372.81;;;9.80;46.80
15670;BME280;18524;45.190;5.732;2023-02-28T13:52:36;99370.94;;;9.93;46.65
15670;BME280;18524;45.190;5.732;2023-02-28T14:08:20;99373.75;;;9.79;46.68
15670;BME280;18524;45.190;5.732;2023-02-28T14:13:43;99364.81;;;9.70;46.41
15670;BME280;18524;45.190;5.732;2023-02-28T14:18:42;99359.59;;;9.82;46.79
15670;BME280;18524;45.190;5.732;2023-02-28T14:34:37;99357.78;;;9.71;46.43
15670;BME280;18524;45.190;5.732;2023-02-28T14:39:31;99362.50;;;9.66;46.97
15670;BME280;18524;45.190;5.732;2023-02-28T14:44:24;99372.47;;;9.61;46.89
15670;BME280;18524;45.190;5.732;2023-02-28T14:49:29;99369.78;;;9.26;47.92
15670;BME280;18524;45.190;5.732;2023-02-28T14:54:21;99370.53;;;9.15;48.59
15670;BME280;18524;45.190;5.732;2023-02-28T14:59:29;99375.72;;;9.04;48.41
15670;BME280;18524;45.190;5.732;2023-02-28T15:04:26;99367.13;;;8.89;49.12
15670;BME280;18524;45.190;5.732;2023-02-28T15:09:18;99370.41;;;8.80;49.05
15670;BME280;18524;45.190;5.732;2023-02-28T15:14:15;99377.84;;;8.73;49.48
15670;BME280;18524;45.190;5.732;2023-02-28T15:19:37;99378.06;;;8.58;50.07
15670;BME280;18524;45.190;5.732;2023-02-28T15:24:51;99378.56;;;8.50;50.09
15670;BME280;18524;45.190;5.732;2023-02-28T15:29:47;99379.97;;;8.56;50.05
15670;BME280;18524;45.190;5.732;2023-02-28T15:34:42;99373.47;;;8.61;50.54
15670;BME280;18524;45.190;5.732;2023-02-28T15:39:42;99369.56;;;8.54;50.65
15670;BME280;18524;45.190;5.732;2023-02-28T15:44:34;99363.41;;;8.42;50.78
15670;BME280;18524;45.190;5.732;2023-02-28T15:49:25;99366.25;;;8.39;51.07
15670;BME280;18524;45.190;5.732;2023-02-28T15:54:28;99366.66;;;8.33;51.27
15670;BME280;18524;45.190;5.732;2023-02-28T15:59:22;99364.75;;;8.23;51.68
15670;BME280;18524;45.190;5.732;2023-02-28T16:04:19;99366.91;;;8.03;51.76
15670;BME280;18524;45.190;5.732;2023-02-28T16:09:15;99362.00;;;7.99;52.56
15670;BME280;18524;45.190;5.732;2023-02-28T16:14:05;99378.91;;;8.06;52.37
15670;BME280;18524;45.190;5.732;2023-02-28T16:18:56;99377.66;;;7.99;52.25
15670;BME280;18524;45.190;5.732;2023-02-28T16:23:46;99381.63;;;7.92;52.39
15670;BME280;18524;45.190;5.732;2023-02-28T16:28:38;99388.63;;;7.91;52.30
15670;BME280;18524;45.190;5.732;2023-02-28T16:33:29;99392.66;;;7.82;52.66
15670;BME280;18524;45.190;5.732;2023-02-28T16:38:20;99386.50;;;7.83;53.08
15670;BME280;18524;45.190;5.732;2023-02-28T16:43:23;99392.47;;;7.86;53.10
15670;BME280;18524;45.190;5.732;2023-02-28T16:48:16;99397.50;;;7.89;52.90
15670;BME280;18524;45.190;5.732;2023-02-28T16:53:06;99410.59;;;7.74;53.53
15670;BME280;18524;45.190;5.732;2023-02-28T16:57:59;99405.03;;;7.66;53.81
15670;BME280;18524;45.190;5.732;2023-02-28T17:02:50;99405.91;;;7.79;53.11
15670;BME280;18524;45.190;5.732;2023-02-28T17:07:41;99408.59;;;7.78;53.41
15670;BME280;18524;45.190;5.732;2023-02-28T17:12:32;99412.66;;;7.69;53.42
15670;BME280;18524;45.190;5.732;2023-02-28T17:17:22;99423.28;;;7.66;53.44
15670;BME280;18524;45.190;5.732;2023-02-28T17:22:13;99426.59;;;7.56;53.47
15670;BME280;18524;45.190;5.732;2023-02-28T17:27:04;99422.22;;;7.56;53.49
15670;BME280;18524;45.190;5.732;2023-02-28T17:31:54;99427.63;;;7.53;53.44
15670;BME280;18524;45.190;5.732;2023-02-28T17:36:46;99420.34;;;7.58;53.61
15670;BME280;18524;45.190;5.732;2023-02-28T17:41:37;99431.91;;;7.54;53.40
15670;BME280;18524;45.190;5.732;2023-02-28T17:46:27;99437.53;;;7.48;53.62
15670;BME280;18524;45.190;5.732;2023-02-28T17:51:20;99439.84;;;7.52;53.21
15670;BME280;18524;45.190;5.732;2023-02-28T17:56:18;99444.66;;;7.59;53.34
15670;BME280;18524;45.190;5.732;2023-02-28T18:01:09;99449.69;;;7.62;52.94
15670;BME280;18524;45.190;5.732;2023-02-28T18:06:01;99457.91;;;7.56;53.15
15670;BME280;18524;45.190;5.732;2023-02-28T18:10:52;99452.34;;;7.47;53.48
15670;BME280;18524;45.190;5.732;2023-02-28T18:15:43;99460.06;;;7.49;53.55
15670;BME280;18524;45.190;5.732;2023-02-28T18:20:34;99457.19;;;7.53;52.73
15670;BME280;18524;45.190;5.732;2023-02-28T18:25:24;99458.84;;;7.40;53.25
15670;BME280;18524;45.190;5.732;2023-02-28T18:30:15;99458.25;;;7.22;53.82
15670;BME280;18524;45.190;5.732;2023-02-28T18:35:06;99457.56;;;7.33;53.42
15670;BME280;18524;45.190;5.732;2023-02-28T18:39:56;99455.50;;;7.38;53.72
15670;BME280;18524;45.190;5.732;2023-02-28T18:44:47;99460.28;;;7.32;53.19
15670;BME280;18524;45.190;5.732;2023-02-28T18:49:37;99453.84;;;7.37;53.36
15670;BME280;18524;45.190;5.732;2023-02-28T18:54:27;99462.16;;;7.44;52.86
15670;BME280;18524;45.190;5.732;2023-02-28T18:59:18;99457.56;;;7.33;53.59
15670;BME280;18524;45.190;5.732;2023-02-28T19:04:12;99463.44;;;7.37;53.25
15670;BME280;18524;45.190;5.732;2023-02-28T19:09:02;99463.13;;;7.41;53.02
15670;BME280;18524;45.190;5.732;2023-02-28T19:13:53;99463.97;;;7.42;53.42
15670;BME280;18524;45.190;5.732;2023-02-28T19:18:44;99455.06;;;7.46;53.53
15670;BME280;18524;45.190;5.732;2023-02-28T19:23:36;99454.22;;;7.45;53.41
15670;BME280;18524;45.190;5.732;2023-02-28T19:28:28;99452.81;;;7.40;54.07
15670;BME280;18524;45.190;5.732;2023-02-28T19:33:19;99449.25;;;7.41;53.50
15670;BME280;18524;45.190;5.732;2023-02-28T19:38:10;99452.44;;;7.46;53.38
15670;BME280;18524;45.190;5.732;2023-02-28T19:43:00;99462.22;;;7.42;53.40
15670;BME280;18524;45.190;5.732;2023-02-28T19:47:50;99457.28;;;7.38;53.17
15670;BME280;18524;45.190;5.732;2023-02-28T19:52:41;99455.25;;;7.29;53.76
15670;BME280;18524;45.190;5.732;2023-02-28T19:57:32;99448.25;;;7.43;53.07
15670;BME280;18524;45.190;5.732;2023-02-28T20:02:22;99443.09;;;7.42;53.39
15670;BME280;18524;45.190;5.732;2023-02-28T20:07:13;99450.38;;;7.37;53.46
15670;BME280;18524;45.190;5.732;2023-02-28T20:12:04;99448.81;;;7.34;53.32
15670;BME280;18524;45.190;5.732;2023-02-28T20:16:54;99457.97;;;7.27;53.41
15670;BME280;18524;45.190;5.732;2023-02-28T20:21:45;99459.28;;;7.20;54.32
15670;BME280;18524;45.190;5.732;2023-02-28T20:26:37;99457.50;;;7.20;54.45
15670;BME280;18524;45.190;5.732;2023-02-28T20:31:27;99451.91;;;7.27;53.88
15670;BME280;18524;45.190;5.732;2023-02-28T20:36:19;99463.47;;;7.22;54.39
15670;BME280;18524;45.190;5.732;2023-02-28T20:41:11;99453.59;;;7.13;54.74
15670;BME280;18524;45.190;5.732;2023-02-28T20:46:02;99457.13;;;7.12;54.60
15670;BME280;18524;45.190;5.732;2023-02-28T20:50:55;99457.13;;;7.12;54.92
15670;BME280;18524;45.190;5.732;2023-02-28T20:55:56;99459.56;;;7.15;54.64
15670;BME280;18524;45.190;5.732;2023-02-28T21:00:46;99458.41;;;7.05;55.30
15670;BME280;18524;45.190;5.732;2023-02-28T21:05:37;99456.41;;;7.10;54.86
15670;BME280;18524;45.190;5.732;2023-02-28T21:10:27;99454.16;;;7.18;54.96
15670;BME280;18524;45.190;5.732;2023-02-28T21:15:17;99459.34;;;7.04;55.77
15670;BME280;18524;45.190;5.732;2023-02-28T21:20:08;99457.69;;;7.03;55.13
15670;BME280;18524;45.190;5.732;2023-02-28T21:24:59;99456.75;;;7.04;55.36
15670;BME280;18524;45.190;5.732;2023-02-28T21:29:49;99465.41;;;6.90;56.00
15670;BME280;18524;45.190;5.732;2023-02-28T21:34:39;99455.66;;;7.08;55.77
15670;BME280;18524;45.190;5.732;2023-02-28T21:39:30;99469.41;;;6.96;56.15
15670;BME280;18524;45.190;5.732;2023-02-28T21:44:21;99452.75;;;6.99;55.99
15670;BME280;18524;45.190;5.732;2023-02-28T21:49:12;99453.97;;;6.93;56.32
15670;BME280;18524;45.190;5.732;2023-02-28T21:54:03;99440.94;;;6.93;56.15
15670;BME280;18524;45.190;5.732;2023-02-28T21:58:53;99446.50;;;7.01;55.65
15670;BME280;18524;45.190;5.732;2023-02-28T22:03:49;99448.47;;;6.83;56.78
15670;BME280;18524;45.190;5.732;2023-02-28T22:08:40;99449.50;;;6.81;56.74
15670;BME280;18524;45.190;5.732;2023-02-28T22:13:32;99453.31;;;6.89;56.57
15670;BME280;18524;45.190;5.732;2023-02-28T22:18:22;99450.25;;;6.83;57.19
15670;BME280;18524;45.190;5.732;2023-02-28T22:23:13;99456.28;;;6.83;56.62
15670;BME280;18524;45.190;5.732;2023-02-28T22:28:03;99458.25;;;6.80;57.22
15670;BME280;18524;45.190;5.732;2023-02-28T22:32:53;99466.63;;;6.85;57.03
15670;BME280;18524;45.190;5.732;2023-02-28T22:37:46;99470.81;;;6.87;57.10
15670;BME280;18524;45.190;5.732;2023-02-28T22:42:37;99474.91;;;6.77;56.79
15670;BME280;18524;45.190;5.732;2023-02-28T22:47:27;99469.88;;;6.74;57.62
15670;BME280;18524;45.190;5.732;2023-02-28T22:52:17;99470.16;;;6.84;57.69
15670;BME280;18524;45.190;5.732;2023-02-28T22:57:09;99468.84;;;6.77;58.13
15670;BME280;18524;45.190;5.732;2023-02-28T23:02:00;99469.97;;;6.73;57.91
15670;BME280;18524;45.190;5.732;2023-02-28T23:06:51;99468.03;;;6.76;57.65
15670;BME280;18524;45.190;5.732;2023-02-28T23:11:43;99470.22;;;6.68;58.10
15670;BME280;18524;45.190;5.732;2023-02-28T23:16:39;99469.31;;;6.69;58.15
15670;BME280;18524;45.190;5.732;2023-02-28T23:21:30;99462.88;;;6.61;58.38
15670;BME280;18524;45.190;5.732;2023-02-28T23:26:21;99459.13;;;6.65;57.87
15670;BME280;18524;45.190;5.732;2023-02-28T23:31:11;99471.84;;;6.71;58.46
15670;BME280;18524;45.190;5.732;2023-02-28T23:36:10;99469.31;;;6.69;58.29
15670;BME280;18524;45.190;5.732;2023-02-28T23:41:01;99472.78;;;6.84;58.35
15670;BME280;18524;45.190;5.732;2023-02-28T23:45:57;99475.75;;;6.92;57.67
15670;BME280;18524;45.190;5.732;2023-02-28T23:50:48;99486.91;;;6.94;58.34
15670;BME280;18524;45.190;5.732;2023-02-28T23:55:44;99488.22;;;6.87;58.23
